sensor_id;sensor_type;location;lat;lon;timestamp;P1;durP1;ratioP1;P2;durP2;ratioP2
2388;SDS011;1205;47.984;7.668;2023-07-24T00:00:20;13.13;;;7.70;;
2388;SDS011;1205;47.984;7.668;2023-07-24T00:02:46;9.37;;;7.40;;
2388;SDS011;1205;47.984;7.668;2023-07-24T00:05:11;12.23;;;8.00;;
2388;SDS011;1205;47.984;7.668;2023-07-24T00:07:37;19.70;;;7.40;;
2388;SDS011;1205;47.984;7.668;2023-07-24T00:10:03;10.10;;;8.20;;
2388;SDS011;1205;47.984;7.668;2023-07-24T00:12:29;10.20;;;6.90;;
2388;SDS011;1205;47.984;7.668;2023-07-24T00:14:55;12.10;;;7.70;;
2388;SDS011;1205;47.984;7.668;2023-07-24T00:17:21;13.33;;;9.00;;
2388;SDS011;1205;47.984;7.668;2023-07-24T00:19:46;11.83;;;7.60;;
2388;SDS011;1205;47.984;7.668;2023-07-24T00:22:12;12.67;;;8.57;;
2388;SDS011;1205;47.984;7.668;2023-07-24T00:24:38;11.63;;;8.10;;
2388;SDS011;1205;47.984;7.668;2023-07-24T00:27:04;10.37;;;8.03;;
2388;SDS011;1205;47.984;7.668;2023-07-24T00:29:29;18.40;;;9.50;;
2388;SDS011;1205;47.984;7.668;2023-07-24T00:31:55;11.73;;;7.83;;
2388;SDS011;1205;47.984;7.668;2023-07-24T00:34:20;13.63;;;8.30;;
2388;SDS011;1205;47.984;7.668;2023-07-24T00:36:46;11.30;;;7.70;;
2388;SDS011;1205;47.984;7.668;2023-07-24T00:39:13;11.63;;;7.80;;
2388;SDS011;1205;47.984;7.668;2023-07-24T00:41:39;12.30;;;8.67;;
2388;SDS011;1205;47.984;7.668;2023-07-24T00:44:05;14.13;;;8.43;;
2388;SDS011;1205;47.984;7.668;2023-07-24T00:46:31;15.83;;;7.70;;
2388;SDS011;1205;47.984;7.668;2023-07-24T00:48:58;16.53;;;8.40;;
2388;SDS011;1205;47.984;7.668;2023-07-24T00:51:25;11.90;;;8.70;;
2388;SDS011;1205;47.984;7.668;2023-07-24T00:53:54;14.70;;;7.97;;
2388;SDS011;1205;47.984;7.668;2023-07-24T00:56:21;13.23;;;7.37;;
2388;SDS011;1205;47.984;7.668;2023-07-24T00:58:47;19.17;;;7.97;;
2388;SDS011;1205;47.984;7.668;2023-07-24T01:01:14;11.87;;;7.70;;
2388;SDS011;1205;47.984;7.668;2023-07-24T01:03:41;12.80;;;8.70;;
2388;SDS011;1205;47.984;7.668;2023-07-24T01:06:08;8.90;;;7.10;;
2388;SDS011;1205;47.984;7.668;2023-07-24T01:08:35;13.10;;;9.17;;
2388;SDS011;1205;47.984;7.668;2023-07-24T01:11:08;12.63;;;8.57;;
2388;SDS011;1205;47.984;7.668;2023-07-24T01:13:40;13.07;;;8.20;;
2388;SDS011;1205;47.984;7.668;2023-07-24T01:16:13;11.73;;;8.30;;
2388;SDS011;1205;47.984;7.668;2023-07-24T01:18:43;12.53;;;8.67;;
2388;SDS011;1205;47.984;7.668;2023-07-24T01:21:11;14.23;;;8.67;;
2388;SDS011;1205;47.984;7.668;2023-07-24T01:23:44;11.77;;;7.57;;
2388;SDS011;1205;47.984;7.668;2023-07-24T01:26:11;11.50;;;7.70;;
2388;SDS011;1205;47.984;7.668;2023-07-24T01:28:37;15.77;;;7.70;;
2388;SDS011;1205;47.984;7.668;2023-07-24T01:31:04;12.67;;;8.77;;
2388;SDS011;1205;47.984;7.668;2023-07-24T01:33:30;13.47;;;7.80;;
2388;SDS011;1205;47.984;7.668;2023-07-24T01:35:59;18.23;;;8.67;;
2388;SDS011;1205;47.984;7.668;2023-07-24T01:38:25;11.13;;;8.43;;
2388;SDS011;1205;47.984;7.668;2023-07-24T01:40:55;9.53;;;7.50;;
2388;SDS011;1205;47.984;7.668;2023-07-24T01:43:21;9.47;;;7.30;;
2388;SDS011;1205;47.984;7.668;2023-07-24T01:45:47;14.83;;;7.90;;
2388;SDS011;1205;47.984;7.668;2023-07-24T01:48:13;10.73;;;7.73;;
2388;SDS011;1205;47.984;7.668;2023-07-24T01:50:39;11.40;;;7.60;;
2388;SDS011;1205;47.984;7.668;2023-07-24T01:53:04;9.70;;;6.80;;
2388;SDS011;1205;47.984;7.668;2023-07-24T01:55:30;10.70;;;7.03;;
2388;SDS011;1205;47.984;7.668;2023-07-24T01:57:55;12.50;;;8.30;;
2388;SDS011;1205;47.984;7.668;2023-07-24T02:00:21;11.93;;;7.23;;
2388;SDS011;1205;47.984;7.668;2023-07-24T02:02:46;11.83;;;8.07;;
2388;SDS011;1205;47.984;7.668;2023-07-24T02:05:12;12.73;;;7.43;;
2388;SDS011;1205;47.984;7.668;2023-07-24T02:07:38;12.87;;;8.10;;
2388;SDS011;1205;47.984;7.668;2023-07-24T02:10:03;10.53;;;7.27;;
2388;SDS011;1205;47.984;7.668;2023-07-24T02:12:29;11.20;;;7.20;;
2388;SDS011;1205;47.984;7.668;2023-07-24T02:14:55;19.93;;;8.63;;
2388;SDS011;1205;47.984;7.668;2023-07-24T02:17:21;12.37;;;7.50;;
2388;SDS011;1205;47.984;7.668;2023-07-24T02:19:48;26.63;;;9.03;;
2388;SDS011;1205;47.984;7.668;2023-07-24T02:22:13;11.90;;;7.73;;
2388;SDS011;1205;47.984;7.668;2023-07-24T02:24:40;13.20;;;7.20;;
2388;SDS011;1205;47.984;7.668;2023-07-24T02:27:05;11.37;;;7.30;;
2388;SDS011;1205;47.984;7.668;2023-07-24T02:29:31;17.83;;;8.53;;
2388;SDS011;1205;47.984;7.668;2023-07-24T02:31:57;12.90;;;8.70;;
2388;SDS011;1205;47.984;7.668;2023-07-24T02:34:30;10.80;;;8.20;;
2388;SDS011;1205;47.984;7.668;2023-07-24T02:36:55;9.93;;;8.13;;
2388;SDS011;1205;47.984;7.668;2023-07-24T02:39:21;10.83;;;8.30;;
2388;SDS011;1205;47.984;7.668;2023-07-24T02:41:47;12.53;;;9.07;;
2388;SDS011;1205;47.984;7.668;2023-07-24T02:44:13;17.20;;;8.23;;
2388;SDS011;1205;47.984;7.668;2023-07-24T02:46:38;9.57;;;7.77;;
2388;SDS011;1205;47.984;7.668;2023-07-24T02:49:04;13.10;;;7.90;;
2388;SDS011;1205;47.984;7.668;2023-07-24T02:51:30;13.10;;;7.73;;
2388;SDS011;1205;47.984;7.668;2023-07-24T02:53:56;14.13;;;9.00;;
2388;SDS011;1205;47.984;7.668;2023-07-24T02:56:21;12.50;;;8.03;;
2388;SDS011;1205;47.984;7.668;2023-07-24T02:58:47;10.57;;;8.63;;
2388;SDS011;1205;47.984;7.668;2023-07-24T03:01:12;10.73;;;8.50;;
2388;SDS011;1205;47.984;7.668;2023-07-24T03:03:39;13.00;;;8.03;;
2388;SDS011;1205;47.984;7.668;2023-07-24T03:06:05;10.23;;;7.80;;
2388;SDS011;1205;47.984;7.668;2023-07-24T03:08:31;9.47;;;7.13;;
2388;SDS011;1205;47.984;7.668;2023-07-24T03:10:57;12.67;;;8.63;;
2388;SDS011;1205;47.984;7.668;2023-07-24T03:13:23;16.00;;;8.27;;
2388;SDS011;1205;47.984;7.668;2023-07-24T03:15:52;11.33;;;7.77;;
2388;SDS011;1205;47.984;7.668;2023-07-24T03:18:22;12.57;;;8.33;;
2388;SDS011;1205;47.984;7.668;2023-07-24T03:20:48;15.20;;;8.00;;
2388;SDS011;1205;47.984;7.668;2023-07-24T03:23:13;11.83;;;9.00;;
2388;SDS011;1205;47.984;7.668;2023-07-24T03:25:39;13.37;;;8.80;;
2388;SDS011;1205;47.984;7.668;2023-07-24T03:28:05;11.97;;;7.63;;
2388;SDS011;1205;47.984;7.668;2023-07-24T03:30:30;11.27;;;7.80;;
2388;SDS011;1205;47.984;7.668;2023-07-24T03:32:56;9.60;;;7.30;;
2388;SDS011;1205;47.984;7.668;2023-07-24T03:35:22;10.17;;;8.00;;
2388;SDS011;1205;47.984;7.668;2023-07-24T03:37:48;9.50;;;8.17;;
2388;SDS011;1205;47.984;7.668;2023-07-24T03:40:13;10.77;;;7.70;;
2388;SDS011;1205;47.984;7.668;2023-07-24T03:42:39;8.97;;;7.20;;
2388;SDS011;1205;47.984;7.668;2023-07-24T03:45:05;9.53;;;7.10;;
2388;SDS011;1205;47.984;7.668;2023-07-24T03:47:31;14.07;;;7.10;;
2388;SDS011;1205;47.984;7.668;2023-07-24T03:49:56;8.70;;;7.30;;
2388;SDS011;1205;47.984;7.668;2023-07-24T03:52:22;10.10;;;7.20;;
2388;SDS011;1205;47.984;7.668;2023-07-24T03:54:48;9.40;;;7.77;;
2388;SDS011;1205;47.984;7.668;2023-07-24T03:57:13;9.43;;;7.37;;
2388;SDS011;1205;47.984;7.668;2023-07-24T03:59:39;10.63;;;7.40;;
2388;SDS011;1205;47.984;7.668;2023-07-24T04:02:04;12.50;;;7.13;;
2388;SDS011;1205;47.984;7.668;2023-07-24T04:04:30;13.70;;;7.80;;
2388;SDS011;1205;47.984;7.668;2023-07-24T04:06:57;10.23;;;8.10;;
2388;SDS011;1205;47.984;7.668;2023-07-24T04:09:23;12.90;;;7.60;;
2388;SDS011;1205;47.984;7.668;2023-07-24T04:11:48;11.63;;;8.03;;
2388;SDS011;1205;47.984;7.668;2023-07-24T04:14:14;10.40;;;6.97;;
2388;SDS011;1205;47.984;7.668;2023-07-24T04:16:39;9.97;;;7.40;;
2388;SDS011;1205;47.984;7.668;2023-07-24T04:19:05;8.40;;;7.50;;
2388;SDS011;1205;47.984;7.668;2023-07-24T04:21:30;11.93;;;8.33;;
2388;SDS011;1205;47.984;7.668;2023-07-24T04:23:56;13.03;;;7.57;;
2388;SDS011;1205;47.984;7.668;2023-07-24T04:26:21;14.50;;;8.50;;
2388;SDS011;1205;47.984;7.668;2023-07-24T04:28:47;12.83;;;7.63;;
2388;SDS011;1205;47.984;7.668;2023-07-24T04:31:13;11.07;;;8.43;;
2388;SDS011;1205;47.984;7.668;2023-07-24T04:33:38;10.90;;;7.57;;
2388;SDS011;1205;47.984;7.668;2023-07-24T04:36:04;11.87;;;7.83;;
2388;SDS011;1205;47.984;7.668;2023-07-24T04:38:30;13.33;;;8.77;;
2388;SDS011;1205;47.984;7.668;2023-07-24T04:40:55;11.00;;;8.50;;
2388;SDS011;1205;47.984;7.668;2023-07-24T04:43:21;11.13;;;8.73;;
2388;SDS011;1205;47.984;7.668;2023-07-24T04:45:46;10.80;;;8.20;;
2388;SDS011;1205;47.984;7.668;2023-07-24T04:48:12;8.97;;;7.23;;
2388;SDS011;1205;47.984;7.668;2023-07-24T04:50:37;12.07;;;8.60;;
2388;SDS011;1205;47.984;7.668;2023-07-24T04:53:03;9.40;;;7.33;;
2388;SDS011;1205;47.984;7.668;2023-07-24T04:55:28;10.40;;;8.10;;
2388;SDS011;1205;47.984;7.668;2023-07-24T04:57:54;16.27;;;8.30;;
2388;SDS011;1205;47.984;7.668;2023-07-24T05:00:20;11.90;;;8.30;;
2388;SDS011;1205;47.984;7.668;2023-07-24T05:02:45;10.00;;;7.63;;
2388;SDS011;1205;47.984;7.668;2023-07-24T05:05:11;10.77;;;7.53;;
2388;SDS011;1205;47.984;7.668;2023-07-24T05:07:36;12.30;;;8.07;;
2388;SDS011;1205;47.984;7.668;2023-07-24T05:10:02;12.93;;;7.30;;
2388;SDS011;1205;47.984;7.668;2023-07-24T05:12:28;8.07;;;7.27;;
2388;SDS011;1205;47.984;7.668;2023-07-24T05:14:53;16.10;;;8.07;;
2388;SDS011;1205;47.984;7.668;2023-07-24T05:17:19;9.77;;;7.50;;
2388;SDS011;1205;47.984;7.668;2023-07-24T05:19:44;12.43;;;6.90;;
2388;SDS011;1205;47.984;7.668;2023-07-24T05:22:10;11.33;;;6.97;;
2388;SDS011;1205;47.984;7.668;2023-07-24T05:24:38;11.77;;;7.30;;
2388;SDS011;1205;47.984;7.668;2023-07-24T05:27:07;11.80;;;7.60;;
2388;SDS011;1205;47.984;7.668;2023-07-24T05:29:32;7.30;;;6.17;;
2388;SDS011;1205;47.984;7.668;2023-07-24T05:31:58;11.07;;;6.80;;
2388;SDS011;1205;47.984;7.668;2023-07-24T05:34:24;8.87;;;6.70;;
2388;SDS011;1205;47.984;7.668;2023-07-24T05:36:50;14.53;;;5.67;;
2388;SDS011;1205;47.984;7.668;2023-07-24T05:39:15;8.80;;;6.00;;
2388;SDS011;1205;47.984;7.668;2023-07-24T05:41:41;7.80;;;5.20;;
2388;SDS011;1205;47.984;7.668;2023-07-24T05:44:06;9.13;;;5.90;;
2388;SDS011;1205;47.984;7.668;2023-07-24T05:46:32;8.30;;;6.27;;
2388;SDS011;1205;47.984;7.668;2023-07-24T05:48:58;9.23;;;5.53;;
2388;SDS011;1205;47.984;7.668;2023-07-24T05:51:25;6.17;;;5.00;;
2388;SDS011;1205;47.984;7.668;2023-07-24T05:53:51;7.37;;;5.83;;
2388;SDS011;1205;47.984;7.668;2023-07-24T05:56:16;7.10;;;6.00;;
2388;SDS011;1205;47.984;7.668;2023-07-24T05:58:42;6.63;;;4.83;;
2388;SDS011;1205;47.984;7.668;2023-07-24T06:01:07;7.50;;;5.70;;
2388;SDS011;1205;47.984;7.668;2023-07-24T06:03:35;12.93;;;5.40;;
2388;SDS011;1205;47.984;7.668;2023-07-24T06:06:01;6.83;;;5.70;;
2388;SDS011;1205;47.984;7.668;2023-07-24T06:08:26;8.30;;;5.87;;
2388;SDS011;1205;47.984;7.668;2023-07-24T06:10:52;6.70;;;5.50;;
2388;SDS011;1205;47.984;7.668;2023-07-24T06:13:17;7.80;;;5.27;;
2388;SDS011;1205;47.984;7.668;2023-07-24T06:15:44;11.40;;;5.23;;
2388;SDS011;1205;47.984;7.668;2023-07-24T06:18:11;7.67;;;5.77;;
2388;SDS011;1205;47.984;7.668;2023-07-24T06:20:37;8.07;;;5.40;;
2388;SDS011;1205;47.984;7.668;2023-07-24T06:23:02;6.40;;;5.30;;
2388;SDS011;1205;47.984;7.668;2023-07-24T06:25:29;5.93;;;5.07;;
2388;SDS011;1205;47.984;7.668;2023-07-24T06:27:55;5.83;;;5.23;;
2388;SDS011;1205;47.984;7.668;2023-07-24T06:30:21;7.00;;;5.50;;
2388;SDS011;1205;47.984;7.668;2023-07-24T06:32:47;6.33;;;5.00;;
2388;SDS011;1205;47.984;7.668;2023-07-24T06:35:12;11.50;;;5.03;;
2388;SDS011;1205;47.984;7.668;2023-07-24T06:37:38;5.83;;;4.60;;
2388;SDS011;1205;47.984;7.668;2023-07-24T06:40:04;6.10;;;4.93;;
2388;SDS011;1205;47.984;7.668;2023-07-24T06:42:31;6.80;;;4.57;;
2388;SDS011;1205;47.984;7.668;2023-07-24T06:44:56;7.83;;;5.03;;
2388;SDS011;1205;47.984;7.668;2023-07-24T06:47:22;6.50;;;5.00;;
2388;SDS011;1205;47.984;7.668;2023-07-24T06:49:47;8.73;;;4.40;;
2388;SDS011;1205;47.984;7.668;2023-07-24T06:52:13;4.80;;;4.03;;
2388;SDS011;1205;47.984;7.668;2023-07-24T06:54:38;4.57;;;4.10;;
2388;SDS011;1205;47.984;7.668;2023-07-24T06:57:04;5.97;;;4.53;;
2388;SDS011;1205;47.984;7.668;2023-07-24T06:59:30;5.83;;;4.13;;
2388;SDS011;1205;47.984;7.668;2023-07-24T07:01:55;7.03;;;3.90;;
2388;SDS011;1205;47.984;7.668;2023-07-24T07:04:21;6.17;;;4.60;;
2388;SDS011;1205;47.984;7.668;2023-07-24T07:06:46;5.27;;;4.20;;
2388;SDS011;1205;47.984;7.668;2023-07-24T07:09:12;8.47;;;5.07;;
2388;SDS011;1205;47.984;7.668;2023-07-24T07:11:37;7.00;;;4.50;;
2388;SDS011;1205;47.984;7.668;2023-07-24T07:14:04;5.40;;;4.33;;
2388;SDS011;1205;47.984;7.668;2023-07-24T07:16:29;6.37;;;4.53;;
2388;SDS011;1205;47.984;7.668;2023-07-24T07:18:55;12.77;;;5.13;;
2388;SDS011;1205;47.984;7.668;2023-07-24T07:21:21;4.20;;;3.77;;
2388;SDS011;1205;47.984;7.668;2023-07-24T07:23:46;5.27;;;4.20;;
2388;SDS011;1205;47.984;7.668;2023-07-24T07:26:12;5.20;;;4.70;;
2388;SDS011;1205;47.984;7.668;2023-07-24T07:28:37;6.17;;;4.33;;
2388;SDS011;1205;47.984;7.668;2023-07-24T07:31:03;6.43;;;5.10;;
2388;SDS011;1205;47.984;7.668;2023-07-24T07:33:29;6.97;;;4.20;;
2388;SDS011;1205;47.984;7.668;2023-07-24T07:35:54;8.20;;;5.23;;
2388;SDS011;1205;47.984;7.668;2023-07-24T07:38:20;6.63;;;5.00;;
2388;SDS011;1205;47.984;7.668;2023-07-24T07:40:47;6.60;;;4.43;;
2388;SDS011;1205;47.984;7.668;2023-07-24T07:43:13;5.93;;;4.20;;
2388;SDS011;1205;47.984;7.668;2023-07-24T07:45:38;6.77;;;5.30;;
2388;SDS011;1205;47.984;7.668;2023-07-24T07:48:04;6.77;;;5.30;;
2388;SDS011;1205;47.984;7.668;2023-07-24T07:50:30;9.83;;;5.90;;
2388;SDS011;1205;47.984;7.668;2023-07-24T07:52:57;7.57;;;5.17;;
2388;SDS011;1205;47.984;7.668;2023-07-24T07:55:22;5.43;;;4.93;;
2388;SDS011;1205;47.984;7.668;2023-07-24T07:57:48;5.97;;;4.90;;
2388;SDS011;1205;47.984;7.668;2023-07-24T08:00:13;5.97;;;5.27;;
2388;SDS011;1205;47.984;7.668;2023-07-24T08:02:39;5.37;;;4.87;;
2388;SDS011;1205;47.984;7.668;2023-07-24T08:05:09;8.10;;;5.47;;
2388;SDS011;1205;47.984;7.668;2023-07-24T08:07:35;8.70;;;5.30;;
2388;SDS011;1205;47.984;7.668;2023-07-24T08:10:02;6.13;;;4.87;;
2388;SDS011;1205;47.984;7.668;2023-07-24T08:12:28;6.93;;;5.70;;
2388;SDS011;1205;47.984;7.668;2023-07-24T08:14:53;7.70;;;5.37;;
2388;SDS011;1205;47.984;7.668;2023-07-24T08:17:20;6.53;;;4.97;;
2388;SDS011;1205;47.984;7.668;2023-07-24T08:19:45;8.23;;;5.30;;
2388;SDS011;1205;47.984;7.668;2023-07-24T08:22:11;7.97;;;5.27;;
2388;SDS011;1205;47.984;7.668;2023-07-24T08:24:37;5.77;;;4.73;;
2388;SDS011;1205;47.984;7.668;2023-07-24T08:27:02;6.30;;;5.50;;
2388;SDS011;1205;47.984;7.668;2023-07-24T08:29:28;8.80;;;5.73;;
2388;SDS011;1205;47.984;7.668;2023-07-24T08:31:53;7.50;;;6.07;;
2388;SDS011;1205;47.984;7.668;2023-07-24T08:34:19;8.30;;;6.20;;
2388;SDS011;1205;47.984;7.668;2023-07-24T08:36:45;5.73;;;5.20;;
2388;SDS011;1205;47.984;7.668;2023-07-24T08:39:10;9.23;;;6.03;;
2388;SDS011;1205;47.984;7.668;2023-07-24T08:41:36;7.77;;;5.40;;
2388;SDS011;1205;47.984;7.668;2023-07-24T08:44:03;20.37;;;6.27;;
2388;SDS011;1205;47.984;7.668;2023-07-24T08:46:36;12.50;;;5.90;;
2388;SDS011;1205;47.984;7.668;2023-07-24T08:49:03;8.97;;;6.20;;
2388;SDS011;1205;47.984;7.668;2023-07-24T08:51:29;13.27;;;7.20;;
2388;SDS011;1205;47.984;7.668;2023-07-24T08:53:56;9.90;;;6.17;;
2388;SDS011;1205;47.984;7.668;2023-07-24T08:56:22;10.20;;;6.40;;
2388;SDS011;1205;47.984;7.668;2023-07-24T08:58:48;9.60;;;5.83;;
2388;SDS011;1205;47.984;7.668;2023-07-24T09:01:13;14.73;;;5.47;;
2388;SDS011;1205;47.984;7.668;2023-07-24T09:03:39;11.43;;;6.67;;
2388;SDS011;1205;47.984;7.668;2023-07-24T09:06:05;13.40;;;6.47;;
2388;SDS011;1205;47.984;7.668;2023-07-24T09:08:37;12.20;;;5.93;;
2388;SDS011;1205;47.984;7.668;2023-07-24T09:11:04;9.73;;;5.60;;
2388;SDS011;1205;47.984;7.668;2023-07-24T09:13:31;8.77;;;5.50;;
2388;SDS011;1205;47.984;7.668;2023-07-24T09:15:57;18.43;;;6.27;;
2388;SDS011;1205;47.984;7.668;2023-07-24T09:18:24;16.90;;;6.53;;
2388;SDS011;1205;47.984;7.668;2023-07-24T09:20:50;14.40;;;6.70;;
2388;SDS011;1205;47.984;7.668;2023-07-24T09:23:15;14.27;;;7.37;;
2388;SDS011;1205;47.984;7.668;2023-07-24T09:25:53;19.43;;;7.57;;
2388;SDS011;1205;47.984;7.668;2023-07-24T09:28:19;9.57;;;5.83;;
2388;SDS011;1205;47.984;7.668;2023-07-24T09:30:55;9.13;;;5.90;;
2388;SDS011;1205;47.984;7.668;2023-07-24T09:33:22;8.73;;;6.60;;
2388;SDS011;1205;47.984;7.668;2023-07-24T09:35:59;10.53;;;6.33;;
2388;SDS011;1205;47.984;7.668;2023-07-24T09:38:25;12.03;;;5.37;;
2388;SDS011;1205;47.984;7.668;2023-07-24T09:40:52;8.70;;;5.10;;
2388;SDS011;1205;47.984;7.668;2023-07-24T09:43:30;13.97;;;5.60;;
2388;SDS011;1205;47.984;7.668;2023-07-24T09:45:56;8.37;;;4.33;;
2388;SDS011;1205;47.984;7.668;2023-07-24T09:48:23;5.90;;;3.20;;
2388;SDS011;1205;47.984;7.668;2023-07-24T09:50:57;13.37;;;4.73;;
2388;SDS011;1205;47.984;7.668;2023-07-24T09:53:26;3.47;;;2.23;;
2388;SDS011;1205;47.984;7.668;2023-07-24T09:56:02;3.50;;;2.10;;
2388;SDS011;1205;47.984;7.668;2023-07-24T09:58:29;8.30;;;2.20;;
2388;SDS011;1205;47.984;7.668;2023-07-24T10:00:57;3.57;;;2.30;;
2388;SDS011;1205;47.984;7.668;2023-07-24T10:03:23;4.63;;;2.67;;
2388;SDS011;1205;47.984;7.668;2023-07-24T10:05:49;4.00;;;2.13;;
2388;SDS011;1205;47.984;7.668;2023-07-24T10:08:18;3.23;;;2.17;;
2388;SDS011;1205;47.984;7.668;2023-07-24T10:10:44;4.23;;;2.40;;
2388;SDS011;1205;47.984;7.668;2023-07-24T10:13:10;2.40;;;2.20;;
2388;SDS011;1205;47.984;7.668;2023-07-24T10:15:40;3.57;;;3.20;;
2388;SDS011;1205;47.984;7.668;2023-07-24T10:18:10;3.50;;;3.10;;
2388;SDS011;1205;47.984;7.668;2023-07-24T10:20:39;2.43;;;2.20;;
2388;SDS011;1205;47.984;7.668;2023-07-24T10:23:06;6.67;;;2.87;;
2388;SDS011;1205;47.984;7.668;2023-07-24T10:25:34;4.73;;;2.70;;
2388;SDS011;1205;47.984;7.668;2023-07-24T10:28:06;3.00;;;2.60;;
2388;SDS011;1205;47.984;7.668;2023-07-24T10:30:35;3.20;;;2.90;;
2388;SDS011;1205;47.984;7.668;2023-07-24T10:35:53;5.37;;;4.13;;
2388;SDS011;1205;47.984;7.668;2023-07-24T10:38:20;4.97;;;3.83;;
2388;SDS011;1205;47.984;7.668;2023-07-24T10:41:03;4.57;;;4.07;;
2388;SDS011;1205;47.984;7.668;2023-07-24T10:43:39;4.70;;;4.30;;
2388;SDS011;1205;47.984;7.668;2023-07-24T10:46:12;4.70;;;3.70;;
2388;SDS011;1205;47.984;7.668;2023-07-24T10:48:41;4.77;;;4.13;;
2388;SDS011;1205;47.984;7.668;2023-07-24T10:51:14;4.90;;;4.40;;
2388;SDS011;1205;47.984;7.668;2023-07-24T10:53:47;4.70;;;4.30;;
2388;SDS011;1205;47.984;7.668;2023-07-24T10:56:14;5.07;;;4.20;;
2388;SDS011;1205;47.984;7.668;2023-07-24T10:58:41;11.97;;;4.60;;
2388;SDS011;1205;47.984;7.668;2023-07-24T11:01:07;6.83;;;4.97;;
2388;SDS011;1205;47.984;7.668;2023-07-24T11:03:37;5.63;;;3.97;;
2388;SDS011;1205;47.984;7.668;2023-07-24T11:06:04;6.60;;;4.40;;
2388;SDS011;1205;47.984;7.668;2023-07-24T11:08:36;4.20;;;3.83;;
2388;SDS011;1205;47.984;7.668;2023-07-24T11:11:05;3.33;;;3.10;;
2388;SDS011;1205;47.984;7.668;2023-07-24T11:13:30;3.50;;;3.23;;
2388;SDS011;1205;47.984;7.668;2023-07-24T11:16:03;2.97;;;2.80;;
2388;SDS011;1205;47.984;7.668;2023-07-24T11:18:30;8.40;;;3.57;;
2388;SDS011;1205;47.984;7.668;2023-07-24T11:20:56;6.13;;;3.90;;
2388;SDS011;1205;47.984;7.668;2023-07-24T11:23:22;3.83;;;3.53;;
2388;SDS011;1205;47.984;7.668;2023-07-24T11:25:52;4.20;;;3.80;;
2388;SDS011;1205;47.984;7.668;2023-07-24T11:28:18;3.87;;;3.57;;
2388;SDS011;1205;47.984;7.668;2023-07-24T11:30:44;4.17;;;3.87;;
2388;SDS011;1205;47.984;7.668;2023-07-24T11:33:11;3.87;;;3.50;;
2388;SDS011;1205;47.984;7.668;2023-07-24T11:35:39;3.60;;;3.30;;
2388;SDS011;1205;47.984;7.668;2023-07-24T11:38:06;7.07;;;3.87;;
2388;SDS011;1205;47.984;7.668;2023-07-24T11:40:43;8.03;;;3.77;;
2388;SDS011;1205;47.984;7.668;2023-07-24T11:43:16;3.73;;;3.53;;
2388;SDS011;1205;47.984;7.668;2023-07-24T11:45:42;4.60;;;4.10;;
2388;SDS011;1205;47.984;7.668;2023-07-24T11:48:09;5.00;;;3.70;;
2388;SDS011;1205;47.984;7.668;2023-07-24T11:50:41;4.37;;;4.00;;
2388;SDS011;1205;47.984;7.668;2023-07-24T11:53:24;4.43;;;4.03;;
2388;SDS011;1205;47.984;7.668;2023-07-24T11:55:52;4.40;;;4.00;;
2388;SDS011;1205;47.984;7.668;2023-07-24T11:58:18;3.83;;;3.50;;
2388;SDS011;1205;47.984;7.668;2023-07-24T12:00:46;3.83;;;3.53;;
2388;SDS011;1205;47.984;7.668;2023-07-24T12:03:12;3.80;;;3.50;;
2388;SDS011;1205;47.984;7.668;2023-07-24T12:05:39;4.40;;;4.00;;
2388;SDS011;1205;47.984;7.668;2023-07-24T12:08:06;3.57;;;3.37;;
2388;SDS011;1205;47.984;7.668;2023-07-24T12:10:34;4.20;;;3.50;;
2388;SDS011;1205;47.984;7.668;2023-07-24T12:13:01;4.60;;;3.70;;
2388;SDS011;1205;47.984;7.668;2023-07-24T12:15:27;4.10;;;3.80;;
2388;SDS011;1205;47.984;7.668;2023-07-24T12:17:52;5.20;;;3.90;;
2388;SDS011;1205;47.984;7.668;2023-07-24T12:20:18;8.27;;;4.20;;
2388;SDS011;1205;47.984;7.668;2023-07-24T12:22:44;4.40;;;4.07;;
2388;SDS011;1205;47.984;7.668;2023-07-24T12:25:10;4.07;;;3.77;;
2388;SDS011;1205;47.984;7.668;2023-07-24T12:27:35;3.53;;;3.30;;
2388;SDS011;1205;47.984;7.668;2023-07-24T12:30:02;4.23;;;3.87;;
2388;SDS011;1205;47.984;7.668;2023-07-24T12:32:28;4.30;;;4.00;;
2388;SDS011;1205;47.984;7.668;2023-07-24T12:34:53;4.70;;;4.23;;
2388;SDS011;1205;47.984;7.668;2023-07-24T12:37:19;4.57;;;4.20;;
2388;SDS011;1205;47.984;7.668;2023-07-24T12:39:46;5.93;;;4.63;;
2388;SDS011;1205;47.984;7.668;2023-07-24T12:42:12;5.33;;;4.43;;
2388;SDS011;1205;47.984;7.668;2023-07-24T12:44:38;5.07;;;3.80;;
2388;SDS011;1205;47.984;7.668;2023-07-24T12:47:04;4.50;;;4.10;;
2388;SDS011;1205;47.984;7.668;2023-07-24T12:49:30;5.37;;;4.90;;
2388;SDS011;1205;47.984;7.668;2023-07-24T12:51:56;4.03;;;3.73;;
2388;SDS011;1205;47.984;7.668;2023-07-24T12:54:22;4.83;;;4.43;;
2388;SDS011;1205;47.984;7.668;2023-07-24T12:56:48;4.67;;;4.20;;
2388;SDS011;1205;47.984;7.668;2023-07-24T12:59:14;4.17;;;3.80;;
2388;SDS011;1205;47.984;7.668;2023-07-24T13:01:40;3.57;;;3.37;;
2388;SDS011;1205;47.984;7.668;2023-07-24T13:04:06;4.20;;;3.80;;
2388;SDS011;1205;47.984;7.668;2023-07-24T13:06:33;4.50;;;4.03;;
2388;SDS011;1205;47.984;7.668;2023-07-24T13:08:58;3.40;;;3.20;;
2388;SDS011;1205;47.984;7.668;2023-07-24T13:11:24;3.90;;;3.60;;
2388;SDS011;1205;47.984;7.668;2023-07-24T13:13:49;4.00;;;3.70;;
2388;SDS011;1205;47.984;7.668;2023-07-24T13:16:15;4.13;;;3.73;;
2388;SDS011;1205;47.984;7.668;2023-07-24T13:18:42;4.00;;;3.60;;
2388;SDS011;1205;47.984;7.668;2023-07-24T13:21:07;5.10;;;4.13;;
2388;SDS011;1205;47.984;7.668;2023-07-24T13:23:33;3.93;;;3.60;;
2388;SDS011;1205;47.984;7.668;2023-07-24T13:25:59;4.43;;;3.97;;
2388;SDS011;1205;47.984;7.668;2023-07-24T13:28:25;4.07;;;3.70;;
2388;SDS011;1205;47.984;7.668;2023-07-24T13:30:50;4.07;;;3.63;;
2388;SDS011;1205;47.984;7.668;2023-07-24T13:33:16;4.93;;;4.50;;
2388;SDS011;1205;47.984;7.668;2023-07-24T13:35:42;4.70;;;4.27;;
2388;SDS011;1205;47.984;7.668;2023-07-24T13:38:07;4.07;;;3.77;;
2388;SDS011;1205;47.984;7.668;2023-07-24T13:40:33;6.53;;;4.87;;
2388;SDS011;1205;47.984;7.668;2023-07-24T13:42:59;5.83;;;4.90;;
2388;SDS011;1205;47.984;7.668;2023-07-24T13:45:25;5.23;;;4.73;;
2388;SDS011;1205;47.984;7.668;2023-07-24T13:47:51;5.27;;;4.87;;
2388;SDS011;1205;47.984;7.668;2023-07-24T13:50:16;5.60;;;4.00;;
2388;SDS011;1205;47.984;7.668;2023-07-24T13:52:42;4.20;;;3.80;;
2388;SDS011;1205;47.984;7.668;2023-07-24T13:55:07;5.50;;;4.10;;
2388;SDS011;1205;47.984;7.668;2023-07-24T13:57:33;6.17;;;4.77;;
2388;SDS011;1205;47.984;7.668;2023-07-24T13:59:59;6.37;;;5.20;;
2388;SDS011;1205;47.984;7.668;2023-07-24T14:02:24;6.63;;;5.43;;
2388;SDS011;1205;47.984;7.668;2023-07-24T14:04:50;7.17;;;5.23;;
2388;SDS011;1205;47.984;7.668;2023-07-24T14:07:16;5.70;;;5.10;;
2388;SDS011;1205;47.984;7.668;2023-07-24T14:09:41;6.17;;;5.40;;
2388;SDS011;1205;47.984;7.668;2023-07-24T14:12:07;6.07;;;5.53;;
2388;SDS011;1205;47.984;7.668;2023-07-24T14:14:32;6.47;;;5.53;;
2388;SDS011;1205;47.984;7.668;2023-07-24T14:16:58;6.70;;;5.87;;
2388;SDS011;1205;47.984;7.668;2023-07-24T14:19:24;7.30;;;5.17;;
2388;SDS011;1205;47.984;7.668;2023-07-24T14:21:49;5.80;;;5.20;;
2388;SDS011;1205;47.984;7.668;2023-07-24T14:24:15;6.40;;;5.63;;
2388;SDS011;1205;47.984;7.668;2023-07-24T14:26:41;7.03;;;5.33;;
2388;SDS011;1205;47.984;7.668;2023-07-24T14:29:06;6.40;;;5.80;;
2388;SDS011;1205;47.984;7.668;2023-07-24T14:31:32;5.43;;;4.93;;
2388;SDS011;1205;47.984;7.668;2023-07-24T14:33:57;6.40;;;5.20;;
2388;SDS011;1205;47.984;7.668;2023-07-24T14:36:23;7.20;;;5.40;;
2388;SDS011;1205;47.984;7.668;2023-07-24T14:38:49;5.13;;;4.73;;
2388;SDS011;1205;47.984;7.668;2023-07-24T14:41:15;6.07;;;5.47;;
2388;SDS011;1205;47.984;7.668;2023-07-24T14:43:41;7.93;;;5.17;;
2388;SDS011;1205;47.984;7.668;2023-07-24T14:46:07;5.73;;;5.20;;
2388;SDS011;1205;47.984;7.668;2023-07-24T14:48:32;5.33;;;4.83;;
2388;SDS011;1205;47.984;7.668;2023-07-24T14:50:58;6.27;;;5.60;;
2388;SDS011;1205;47.984;7.668;2023-07-24T14:53:23;5.63;;;5.00;;
2388;SDS011;1205;47.984;7.668;2023-07-24T14:55:49;5.67;;;5.17;;
2388;SDS011;1205;47.984;7.668;2023-07-24T14:58:14;5.77;;;4.80;;
2388;SDS011;1205;47.984;7.668;2023-07-24T15:00:40;6.63;;;5.93;;
2388;SDS011;1205;47.984;7.668;2023-07-24T15:03:06;6.57;;;4.30;;
2388;SDS011;1205;47.984;7.668;2023-07-24T15:05:31;5.13;;;4.63;;
2388;SDS011;1205;47.984;7.668;2023-07-24T15:07:57;5.47;;;4.90;;